Time;durP1;ratioP1;P1;durP2;ratioP2;P2;SDS_P1;SDS_P2;PMS_P1;PMS_P2;Temp;Humidity;BMP_temperature;BMP_pressure;BME280_temperature;BME280_humidity;BME280_pressure;Samples;Min_cycle;Max_cycle;Signal;HPM_P1;HPM_P2
2023/03/02 00:00:34;;;;;;;36.65;31.30;;;;;;;0.19;71.41;98639.69;5059700;28;20083;-76
2023/03/02 00:03:00;;;;;;;38.70;30.83;;;;;;;0.42;70.44;98645.13;5051906;28;20441;-76
2023/03/02 00:05:27;;;;;;;37.13;28.63;;;;;;;0.46;70.63;98646.44;5050121;28;20037;-76
2023/03/02 00:07:53;;;;;;;34.78;30.20;;;;;;;0.33;70.92;98633.72;5034881;28;20036;-76
2023/03/02 00:10:19;;;;;;;35.60;30.35;;;;;;;0.43;70.31;98628.22;5051954;28;20044;-76
2023/03/02 00:12:44;;;;;;;33.67;29.58;;;;;;;0.38;70.62;98635.84;5060183;28;20373;-76
2023/03/02 00:15:10;;;;;;;35.67;29.52;;;;;;;0.57;69.69;98614.28;5057757;28;20039;-76
2023/03/02 00:17:36;;;;;;;38.03;31.20;;;;;;;0.37;70.02;98619.16;5063537;28;20040;-76
2023/03/02 00:20:10;;;;;;;34.58;29.75;;;;;;;0.52;69.72;98619.25;5053590;28;20044;-76
2023/03/02 00:22:40;;;;;;;36.40;30.75;;;;;;;0.41;70.19;98611.69;5049194;28;20033;-76
2023/03/02 00:25:06;;;;;;;39.72;30.00;;;;;;;0.36;70.22;98614.84;5058121;28;20046;-76
2023/03/02 00:27:31;;;;;;;33.15;27.90;;;;;;;0.57;69.74;98615.09;5055372;28;20020;-76
2023/03/02 00:29:57;;;;;;;35.25;28.08;;;;;;;0.86;68.52;98611.84;5084686;28;20033;-77
2023/03/02 00:32:23;;;;;;;32.55;27.77;;;;;;;0.88;68.77;98612.50;5051663;28;20383;-76
2023/03/02 00:34:48;;;;;;;34.05;28.30;;;;;;;0.90;68.04;98610.50;5034685;28;20552;-77
2023/03/02 00:37:14;;;;;;;32.85;28.38;;;;;;;0.80;68.91;98611.69;5028345;28;20091;-76
2023/03/02 00:39:39;;;;;;;34.03;27.30;;;;;;;0.93;68.33;98607.50;5064457;28;20043;-77
2023/03/02 00:42:04;;;;;;;33.30;27.50;;;;;;;0.72;68.54;98594.03;5064591;28;20020;-77
2023/03/02 00:44:30;;;;;;;31.23;27.70;;;;;;;0.87;68.36;98608.19;5034426;28;20119;-77
2023/03/02 00:46:55;;;;;;;35.13;28.10;;;;;;;0.84;68.23;98597.13;5043563;28;20442;-77
2023/03/02 00:49:21;;;;;;;31.80;27.20;;;;;;;0.77;68.65;98602.25;5037366;28;20131;-77
2023/03/02 00:51:46;;;;;;;35.58;27.60;;;;;;;0.58;69.76;98594.75;5037558;28;20024;-76
2023/03/02 00:54:12;;;;;;;33.08;27.25;;;;;;;0.66;69.64;98597.34;5031358;28;20057;-76
2023/03/02 00:56:37;;;;;;;34.92;28.00;;;;;;;0.78;68.95;98593.31;5050828;28;20488;-76
2023/03/02 00:59:25;;;;;;;33.55;28.30;;;;;;;0.48;69.70;98591.47;5034305;28;20044;-76
2023/03/02 01:01:58;;;;;;;34.78;27.13;;;;;;;0.63;69.74;98573.88;5037748;28;20029;-77
2023/03/02 01:04:29;;;;;;;33.97;26.88;;;;;;;0.78;68.70;98585.38;5050817;28;20037;-76
2023/03/02 01:06:56;;;;;;;32.20;27.33;;;;;;;0.93;68.27;98581.00;5018724;28;20039;-76
2023/03/02 01:09:21;;;;;;;32.58;26.70;;;;;;;1.19;67.38;98585.97;5056435;28;20402;-76
2023/03/02 01:11:47;;;;;;;32.35;26.88;;;;;;;0.99;68.08;98580.28;5052624;28;20068;-76
2023/03/02 01:14:12;;;;;;;33.05;27.13;;;;;;;1.05;68.08;98568.16;5017388;28;20108;-75
2023/03/02 01:16:38;;;;;;;31.92;26.48;;;;;;;0.97;68.25;98568.22;5063661;28;20040;-76
2023/03/02 01:19:03;;;;;;;33.30;25.65;;;;;;;0.91;68.95;98567.06;5044691;28;20054;-75
2023/03/02 01:21:29;;;;;;;33.60;26.13;;;;;;;0.80;69.34;98562.16;5057345;28;20113;-75
2023/03/02 01:23:54;;;;;;;32.97;26.58;;;;;;;0.66;70.10;98569.03;5059591;28;20021;-74
2023/03/02 01:26:19;;;;;;;34.10;27.63;;;;;;;0.69;70.37;98562.56;5063691;28;20037;-76
2023/03/02 01:28:45;;;;;;;35.17;27.10;;;;;;;0.90;69.74;98560.13;5044313;28;20028;-77
2023/03/02 01:31:11;;;;;;;31.02;26.10;;;;;;;0.78;69.40;98545.63;5037004;28;20503;-77
2023/03/02 01:33:36;;;;;;;31.83;26.73;;;;;;;0.91;69.50;98551.16;5044692;28;20109;-77
2023/03/02 01:36:02;;;;;;;32.15;26.85;;;;;;;0.72;69.34;98530.41;5049819;28;20416;-76
2023/03/02 01:38:28;;;;;;;35.53;28.95;;;;;;;0.78;69.84;98545.63;5056858;28;20028;-76
2023/03/02 01:40:53;;;;;;;33.20;28.00;;;;;;;0.85;68.77;98535.97;5036658;28;20032;-76
2023/03/02 01:43:18;;;;;;;33.42;28.60;;;;;;;0.83;69.93;98537.97;5043159;28;20020;-76
2023/03/02 01:45:56;;;;;;;34.10;27.25;;;;;;;0.82;69.32;98533.66;5036524;28;20109;-76
2023/03/02 01:48:45;;;;;;;33.03;28.30;;;;;;;0.79;69.09;98531.38;5048992;28;20132;-77
2023/03/02 01:51:16;;;;;;;34.15;27.60;;;;;;;0.63;69.52;98520.88;5062046;28;20576;-76
2023/03/02 01:53:45;;;;;;;34.38;27.90;;;;;;;0.69;69.58;98530.75;5044906;28;20080;-76
2023/03/02 01:56:15;;;;;;;33.22;27.27;;;;;;;0.73;69.27;98516.16;5050265;28;20033;-76
2023/03/02 01:58:40;;;;;;;31.42;27.50;;;;;;;0.69;70.18;98520.16;5050413;28;20039;-76
2023/03/02 02:01:14;;;;;;;33.33;27.60;;;;;;;0.56;70.32;98501.38;5060938;28;20029;-76
2023/03/02 02:03:42;;;;;;;33.25;28.25;;;;;;;0.52;70.47;98514.13;5047346;28;20031;-76
2023/03/02 02:06:20;;;;;;;34.63;27.92;;;;;;;0.41;70.43;98516.31;5026919;28;20029;-76
2023/03/02 02:08:46;;;;;;;34.10;28.73;;;;;;;0.27;71.51;98525.00;5062997;28;20029;-74
2023/03/02 02:11:12;;;;;;;33.60;28.58;;;;;;;0.20;72.04;98519.56;5041984;28;20456;-75
2023/03/02 02:13:37;;;;;;;37.55;30.55;;;;;;;0.20;71.77;98510.78;5018636;28;20033;-74
2023/03/02 02:16:03;;;;;;;33.47;28.98;;;;;;;-0.01;72.01;98521.94;5069864;28;20029;-74
2023/03/02 02:18:29;;;;;;;35.28;29.48;;;;;;;0.08;71.78;98525.38;5063883;28;20388;-75
2023/03/02 02:20:55;;;;;;;36.40;30.25;;;;;;;0.11;71.54;98522.41;5042201;28;20021;-75
2023/03/02 02:23:36;;;;;;;36.97;31.10;;;;;;;-0.11;72.66;98516.84;5065144;28;20032;-75
2023/03/02 02:26:17;;;;;;;35.13;30.52;;;;;;;-0.04;72.21;98517.81;5059759;28;20400;-76
2023/03/02 02:28:47;;;;;;;34.55;29.60;;;;;;;0.22;71.78;98527.31;5050626;28;20053;-77
2023/03/02 02:31:22;;;;;;;36.53;30.42;;;;;;;0.20;71.58;98518.72;5034345;28;20122;-77
2023/03/02 02:33:55;;;;;;;37.78;31.80;;;;;;;-0.24;72.92;98513.06;5027927;28;20154;-76
2023/03/02 02:36:24;;;;;;;35.05;30.27;;;;;;;0.00;71.68;98508.53;5055990;28;20032;-77
2023/03/02 02:38:53;;;;;;;35.05;30.45;;;;;;;-0.17;72.73;98512.22;5049519;28;20044;-77
2023/03/02 02:41:29;;;;;;;35.38;28.98;;;;;;;0.17;72.38;98511.13;5053215;28;20029;-78
2023/03/02 02:43:55;;;;;;;33.70;28.98;;;;;;;-0.04;72.68;98506.38;5022587;28;20033;-77
2023/03/02 02:46:21;;;;;;;36.55;30.35;;;;;;;0.13;71.24;98496.56;5044808;28;20025;-77
2023/03/02 02:48:48;;;;;;;35.13;30.13;;;;;;;0.08;72.09;98504.19;5062929;28;20403;-77
2023/03/02 02:51:19;;;;;;;33.30;29.63;;;;;;;0.12;71.83;98510.81;5024366;28;20036;-77
2023/03/02 02:54:03;;;;;;;33.17;29.65;;;;;;;0.13;71.98;98512.47;5036595;28;20041;-76
2023/03/02 02:56:35;;;;;;;34.35;29.00;;;;;;;0.26;71.41;98507.44;5042163;28;20032;-77
2023/03/02 02:59:05;;;;;;;33.55;28.67;;;;;;;0.39;70.99;98502.44;5038675;28;20495;-77
2023/03/02 03:01:32;;;;;;;34.55;27.65;;;;;;;0.44;71.12;98500.09;5023675;28;20120;-78
2023/03/02 03:04:04;;;;;;;35.15;28.85;;;;;;;0.32;71.30;98501.47;5062720;28;20032;-77
2023/03/02 03:06:41;;;;;;;32.30;28.02;;;;;;;0.25;71.48;98506.63;5046087;28;20040;-77
2023/03/02 03:09:07;;;;;;;33.65;28.33;;;;;;;0.41;70.03;98505.72;5042160;28;20037;-77
2023/03/02 03:11:41;;;;;;;34.83;29.15;;;;;;;0.12;71.09;98500.25;5055470;28;20040;-76
2023/03/02 03:14:09;;;;;;;31.45;26.40;;;;;;;0.38;70.76;98500.75;5052544;28;20029;-76
2023/03/02 03:16:38;;;;;;;32.00;27.60;;;;;;;0.25;70.72;98505.81;5036642;28;20074;-78
2023/03/02 03:19:24;;;;;;;33.72;28.52;;;;;;;0.17;70.66;98498.69;5053122;28;20041;-76
2023/03/02 03:21:54;;;;;;;35.75;28.85;;;;;;;0.22;71.21;98498.19;5039350;28;20032;-77
2023/03/02 03:24:20;;;;;;;38.55;29.17;;;;;;;0.19;70.36;98496.72;5046694;28;20396;-77
2023/03/02 03:26:46;;;;;;;32.03;28.30;;;;;;;0.14;71.49;98487.66;5035984;28;20029;-77
2023/03/02 03:29:14;;;;;;;36.55;28.45;;;;;;;0.17;70.70;98490.75;5069417;28;20072;-76
2023/03/02 03:31:40;;;;;;;33.03;28.35;;;;;;;0.37;70.11;98489.38;5035952;28;20029;-76
2023/03/02 03:34:06;;;;;;;34.08;27.25;;;;;;;0.41;70.44;98495.13;5071839;28;20017;-77
2023/03/02 03:36:35;;;;;;;34.72;27.83;;;;;;;0.43;70.03;98493.13;5043458;28;20093;-76
2023/03/02 03:39:03;;;;;;;34.28;28.58;;;;;;;0.21;70.57;98489.41;5058576;28;20028;-77
2023/03/02 03:41:29;;;;;;;35.90;29.63;;;;;;;0.07;71.02;98486.69;5027870;28;20515;-77
2023/03/02 03:43:55;;;;;;;35.72;28.85;;;;;;;0.39;70.18;98489.19;5025613;28;20025;-77
2023/03/02 03:46:20;;;;;;;35.40;27.65;;;;;;;0.28;70.15;98485.09;5036598;28;20032;-77
2023/03/02 03:48:46;;;;;;;35.72;28.17;;;;;;;0.15;70.87;98478.69;5056432;28;20028;-78
2023/03/02 03:51:12;;;;;;;32.85;27.00;;;;;;;0.37;70.20;98488.53;5054287;28;20059;-78
2023/03/02 03:53:37;;;;;;;31.98;28.05;;;;;;;0.27;70.20;98478.16;5049144;28;20027;-78
2023/03/02 03:56:04;;;;;;;34.65;26.77;;;;;;;0.39;69.88;98475.94;5054765;28;20071;-78
2023/03/02 03:58:30;;;;;;;32.95;26.83;;;;;;;0.52;69.07;98486.78;5048258;28;20114;-76
2023/03/02 04:00:57;;;;;;;34.65;27.00;;;;;;;0.20;70.69;98471.06;5035417;28;20044;-76
2023/03/02 04:03:22;;;;;;;35.05;26.85;;;;;;;0.31;70.20;98483.91;5048614;28;20103;-76
2023/03/02 04:05:48;;;;;;;33.10;26.92;;;;;;;0.23;69.97;98476.03;5052103;28;20060;-76
2023/03/02 04:08:14;;;;;;;31.73;26.58;;;;;;;0.44;69.31;98476.25;5036389;28;20033;-76
2023/03/02 04:10:39;;;;;;;33.50;27.77;;;;;;;0.39;70.45;98484.72;5035226;28;20057;-75
2023/03/02 04:13:05;;;;;;;29.95;26.70;;;;;;;0.20;70.28;98481.66;5054046;28;20539;-76
2023/03/02 04:15:31;;;;;;;33.05;27.58;;;;;;;0.13;70.28;98480.69;5033517;28;20039;-76
2023/03/02 04:17:58;;;;;;;35.95;27.55;;;;;;;0.13;70.44;98492.09;5058638;28;20035;-76
2023/03/02 04:20:24;;;;;;;31.80;27.10;;;;;;;0.29;70.22;98486.75;5063313;28;20029;-76
2023/03/02 04:22:53;;;;;;;32.47;27.13;;;;;;;0.26;70.21;98480.94;5054655;28;20395;-76
2023/03/02 04:25:21;;;;;;;31.10;26.48;;;;;;;0.46;69.83;98492.78;5062680;28;20037;-75
2023/03/02 04:27:49;;;;;;;32.55;27.52;;;;;;;0.32;69.38;98490.88;5068808;28;20032;-76
2023/03/02 04:30:18;;;;;;;34.03;26.70;;;;;;;0.52;68.93;98497.38;5044074;28;20119;-76
2023/03/02 04:32:43;;;;;;;31.48;26.00;;;;;;;0.30;70.13;98490.22;5034617;28;20037;-75
2023/03/02 04:35:13;;;;;;;32.15;26.95;;;;;;;0.49;69.78;98503.06;5051123;28;20040;-75
2023/03/02 04:37:40;;;;;;;33.50;26.02;;;;;;;0.35;69.44;98493.19;5047797;28;20035;-75
2023/03/02 04:40:07;;;;;;;33.03;27.60;;;;;;;0.36;69.55;98497.47;5045082;28;20051;-76
2023/03/02 04:42:33;;;;;;;30.60;26.20;;;;;;;0.31;70.10;98499.81;5058155;28;20016;-75
2023/03/02 04:44:58;;;;;;;31.40;26.23;;;;;;;0.45;68.68;98496.44;5035205;28;20043;-76
2023/03/02 04:47:24;;;;;;;32.13;26.25;;;;;;;0.30;69.48;98495.53;5084714;28;20110;-75
2023/03/02 04:49:53;;;;;;;32.50;26.63;;;;;;;0.22;69.27;98493.72;5060754;28;20880;-76
2023/03/02 04:52:19;;;;;;;31.70;26.27;;;;;;;0.21;69.92;98494.72;5048724;28;20399;-75
2023/03/02 04:54:44;;;;;;;32.65;27.08;;;;;;;0.10;70.54;98486.31;5061301;28;20486;-78
2023/03/02 04:57:10;;;;;;;31.88;26.42;;;;;;;0.37;69.93;98488.53;5040868;28;20111;-77
2023/03/02 04:59:35;;;;;;;34.55;27.67;;;;;;;0.39;69.21;98497.13;5050808;28;20044;-77
2023/03/02 05:02:01;;;;;;;29.50;25.77;;;;;;;0.32;69.70;98488.22;5067100;28;20040;-77
2023/03/02 05:04:27;;;;;;;33.72;27.73;;;;;;;-0.18;70.63;98494.69;5060814;28;20111;-77
2023/03/02 05:06:52;;;;;;;35.05;29.13;;;;;;;-0.12;71.50;98488.69;5033565;28;20024;-77
2023/03/02 05:09:18;;;;;;;35.90;29.20;;;;;;;-0.34;72.26;98492.06;5062155;28;20492;-76
2023/03/02 05:11:44;;;;;;;35.10;29.15;;;;;;;-0.39;71.79;98496.22;5057729;28;20394;-75
2023/03/02 05:14:11;;;;;;;34.33;28.48;;;;;;;-0.29;72.51;98487.13;5080116;28;20036;-75
2023/03/02 05:16:38;;;;;;;32.80;29.30;;;;;;;-0.17;71.48;98491.06;5050481;28;20020;-75
2023/03/02 05:19:06;;;;;;;36.88;29.83;;;;;;;-0.18;71.95;98493.84;5050502;28;20511;-75
2023/03/02 05:21:31;;;;;;;41.38;28.98;;;;;;;-0.16;71.47;98491.84;5051946;28;20426;-73
2023/03/02 05:23:57;;;;;;;34.70;29.85;;;;;;;-0.28;71.53;98486.09;5059384;28;20032;-75
2023/03/02 05:26:22;;;;;;;35.20;29.67;;;;;;;-0.34;72.28;98492.06;5031212;28;20025;-74
2023/03/02 05:28:48;;;;;;;33.72;30.05;;;;;;;-0.54;73.20;98471.47;5071557;28;20042;-76
2023/03/02 05:31:18;;;;;;;37.63;31.58;;;;;;;-0.54;73.77;98476.75;5069171;28;20025;-77
2023/03/02 05:33:43;;;;;;;36.45;30.77;;;;;;;-0.42;72.60;98486.78;5044252;28;20144;-76
2023/03/02 05:36:10;;;;;;;34.97;31.10;;;;;;;-0.31;72.82;98478.53;5056958;28;20178;-76
2023/03/02 05:38:35;;;;;;;33.83;29.25;;;;;;;-0.50;73.07;98478.88;5048253;28;20059;-77
2023/03/02 05:41:01;;;;;;;36.47;31.27;;;;;;;-0.46;72.63;98488.13;5051100;28;20408;-76
2023/03/02 05:43:27;;;;;;;35.90;31.85;;;;;;;-0.43;72.90;98489.63;5041336;28;20029;-76
2023/03/02 05:45:54;;;;;;;36.58;31.98;;;;;;;-0.34;72.80;98493.88;5069934;28;20393;-74
2023/03/02 05:48:20;;;;;;;43.30;36.00;;;;;;;-0.48;73.15;98495.41;5082508;28;20046;-75
2023/03/02 05:50:45;;;;;;;48.45;42.30;;;;;;;-0.57;73.41;98493.78;5054206;28;20025;-74
2023/03/02 05:53:10;;;;;;;45.17;38.97;;;;;;;-0.70;74.19;98506.66;5040677;28;20617;-74
2023/03/02 05:55:36;;;;;;;47.95;40.80;;;;;;;-0.66;73.38;98501.88;5050988;28;20428;-76
2023/03/02 05:58:03;;;;;;;51.70;46.05;;;;;;;-0.71;73.87;98497.09;5049932;28;20036;-76
2023/03/02 06:00:29;;;;;;;41.30;36.88;;;;;;;-0.74;74.28;98507.97;5054256;28;20376;-76
2023/03/02 06:02:55;;;;;;;42.58;37.92;;;;;;;-0.53;73.68;98515.41;5049889;28;20106;-76
2023/03/02 06:05:21;;;;;;;43.47;38.15;;;;;;;-0.69;74.05;98505.66;5049763;28;20024;-76
2023/03/02 06:07:47;;;;;;;41.13;36.78;;;;;;;-0.88;75.10;98521.84;5049707;28;20066;-76
2023/03/02 06:10:15;;;;;;;41.65;37.17;;;;;;;-0.74;74.41;98518.56;5065537;28;20392;-77
2023/03/02 06:12:40;;;;;;;41.55;37.25;;;;;;;-0.89;74.55;98520.22;5044424;28;20500;-76
2023/03/02 06:15:06;;;;;;;40.85;36.17;;;;;;;-0.72;74.50;98516.56;5051665;28;20036;-77
2023/03/02 06:17:32;;;;;;;41.20;36.95;;;;;;;-0.89;75.18;98515.72;5045511;28;20064;-77
2023/03/02 06:19:57;;;;;;;40.03;35.50;;;;;;;-0.72;74.62;98524.50;5039844;28;20150;-76
2023/03/02 06:22:22;;;;;;;40.25;35.85;;;;;;;-0.60;74.40;98520.53;5049547;28;20442;-77
2023/03/02 06:24:48;;;;;;;41.70;35.22;;;;;;;-0.53;74.04;98516.25;5049572;28;20511;-76
2023/03/02 06:27:14;;;;;;;39.65;33.70;;;;;;;-0.38;73.83;98525.16;5024202;28;20052;-76
2023/03/02 06:29:39;;;;;;;40.53;32.53;;;;;;;-0.40;73.06;98516.56;5065079;28;20036;-76
2023/03/02 06:32:04;;;;;;;39.47;34.35;;;;;;;-0.40;73.63;98529.81;5061672;28;20052;-77
2023/03/02 06:34:30;;;;;;;39.70;35.47;;;;;;;-0.43;73.78;98526.66;5063312;28;20025;-76
2023/03/02 06:36:55;;;;;;;39.78;35.58;;;;;;;-0.46;73.71;98525.16;5040550;28;20399;-77
2023/03/02 06:39:21;;;;;;;37.22;32.83;;;;;;;-0.32;73.29;98524.47;5049083;28;20025;-78
2023/03/02 06:41:47;;;;;;;38.05;34.05;;;;;;;-0.25;73.40;98530.75;5060905;28;20067;-78
2023/03/02 06:44:14;;;;;;;37.88;33.85;;;;;;;-0.21;73.37;98541.84;5056337;28;20671;-76
2023/03/02 06:46:40;;;;;;;38.00;33.83;;;;;;;-0.27;73.06;98527.44;5055807;28;20044;-77
2023/03/02 06:49:06;;;;;;;40.05;33.58;;;;;;;-0.14;73.06;98535.69;5043255;28;20020;-77
2023/03/02 06:51:32;;;;;;;37.65;33.25;;;;;;;-0.25;73.18;98530.75;5062441;28;20037;-76
2023/03/02 06:53:57;;;;;;;38.58;34.38;;;;;;;-0.22;73.65;98535.72;5066448;28;20032;-76
2023/03/02 06:56:23;;;;;;;39.45;33.50;;;;;;;-0.22;73.93;98541.00;5048285;28;20037;-75
2023/03/02 06:58:48;;;;;;;39.50;35.35;;;;;;;0.11;72.90;98538.28;5039946;28;20021;-77
2023/03/02 07:01:14;;;;;;;38.10;32.47;;;;;;;0.18;71.91;98526.03;5047403;28;20090;-76
2023/03/02 07:03:39;;;;;;;36.67;31.65;;;;;;;0.15;71.70;98540.41;5049824;28;20046;-77
2023/03/02 07:06:05;;;;;;;36.63;32.75;;;;;;;0.35;71.72;98538.22;5043320;28;20037;-77
2023/03/02 07:08:30;;;;;;;33.15;29.38;;;;;;;0.51;70.65;98532.84;5052838;28;20025;-76
2023/03/02 07:10:56;;;;;;;34.38;30.67;;;;;;;0.62;70.09;98527.16;5052840;28;20091;-76
2023/03/02 07:13:21;;;;;;;31.27;27.70;;;;;;;0.91;68.31;98532.59;5065875;28;20081;-76
2023/03/02 07:15:46;;;;;;;33.25;27.40;;;;;;;0.96;68.75;98530.25;5046067;28;20051;-76
2023/03/02 07:18:12;;;;;;;30.05;24.70;;;;;;;1.25;67.23;98530.41;5059545;28;20016;-76
2023/03/02 07:20:38;;;;;;;30.67;25.25;;;;;;;1.34;66.52;98529.31;5072831;28;20064;-75
2023/03/02 07:23:04;;;;;;;32.92;25.77;;;;;;;1.44;66.87;98537.06;5042487;28;20125;-77
2023/03/02 07:25:30;;;;;;;29.88;24.58;;;;;;;1.62;65.25;98534.06;5052734;28;20033;-77
2023/03/02 07:27:55;;;;;;;30.92;24.35;;;;;;;1.68;66.28;98522.75;5049564;28;20083;-77
2023/03/02 07:30:21;;;;;;;29.60;23.25;;;;;;;1.76;65.24;98526.13;5052626;28;20082;-78
2023/03/02 07:32:47;;;;;;;30.70;23.70;;;;;;;1.94;64.22;98528.44;5048920;28;20067;-77
2023/03/02 07:35:12;;;;;;;32.10;23.92;;;;;;;1.92;64.86;98522.50;5035794;28;20056;-78
2023/03/02 07:37:39;;;;;;;29.73;21.95;;;;;;;2.15;62.85;98522.44;5049038;28;20495;-78
2023/03/02 07:40:05;;;;;;;30.63;22.92;;;;;;;2.12;64.57;98515.66;5046466;28;20040;-78
2023/03/02 07:42:31;;;;;;;26.55;22.42;;;;;;;2.22;64.03;98524.16;5058728;28;20032;-78
2023/03/02 07:44:59;;;;;;;28.25;22.15;;;;;;;2.43;62.48;98512.78;5052504;28;20511;-78
2023/03/02 07:47:24;;;;;;;26.83;21.08;;;;;;;2.45;62.67;98522.22;5056207;28;20036;-77
2023/03/02 07:49:50;;;;;;;27.55;22.58;;;;;;;2.47;62.87;98514.91;5038224;28;20183;-77
2023/03/02 07:52:15;;;;;;;28.55;22.52;;;;;;;2.61;62.41;98505.25;5058964;28;20035;-77
2023/03/02 07:54:41;;;;;;;29.98;23.80;;;;;;;2.58;63.18;98505.63;5082286;28;20425;-77
2023/03/02 07:57:06;;;;;;;28.77;21.67;;;;;;;2.75;62.82;98507.84;5055093;28;20169;-78
2023/03/02 07:59:31;;;;;;;26.30;21.63;;;;;;;2.86;62.43;98511.03;5035379;28;20036;-77
2023/03/02 08:01:57;;;;;;;27.58;22.15;;;;;;;2.93;61.93;98503.97;5066421;28;20637;-77
2023/03/02 08:04:23;;;;;;;27.95;21.35;;;;;;;3.01;62.02;98501.19;5045020;28;20545;-77
2023/03/02 08:06:48;;;;;;;28.60;20.33;;;;;;;3.16;62.05;98499.28;5051826;28;20135;-77
2023/03/02 08:09:14;;;;;;;25.55;20.88;;;;;;;3.29;61.55;98496.78;5044729;28;20047;-78
2023/03/02 08:11:40;;;;;;;24.00;20.05;;;;;;;3.22;61.62;98490.56;5053219;28;20021;-78
2023/03/02 08:14:06;;;;;;;25.70;21.15;;;;;;;3.46;61.88;98488.31;5060271;28;20047;-78
2023/03/02 08:16:31;;;;;;;29.27;20.33;;;;;;;3.37;62.05;98497.44;5053700;28;20031;-77
2023/03/02 08:18:57;;;;;;;24.75;19.10;;;;;;;3.52;61.67;98489.41;5062566;28;20037;-77
2023/03/02 08:21:24;;;;;;;26.88;20.65;;;;;;;3.69;61.47;98501.38;5031944;28;20033;-78
2023/03/02 08:23:49;;;;;;;25.17;19.73;;;;;;;3.64;60.61;98498.47;5044066;28;20028;-77
2023/03/02 08:26:16;;;;;;;24.65;19.13;;;;;;;3.94;60.16;98499.97;5054223;28;20031;-78
2023/03/02 08:28:41;;;;;;;25.15;19.10;;;;;;;3.86;60.28;98500.09;5061930;28;20514;-77
2023/03/02 08:31:07;;;;;;;29.95;19.73;;;;;;;3.92;60.54;98496.63;5065030;28;20056;-78
2023/03/02 08:33:32;;;;;;;24.45;18.63;;;;;;;4.03;60.96;98493.47;5027614;28;20036;-78
2023/03/02 08:36:07;;;;;;;23.27;18.23;;;;;;;4.16;60.39;98482.88;5037371;28;20503;-78
2023/03/02 08:38:33;;;;;;;25.85;19.35;;;;;;;4.22;59.89;98491.09;5045190;28;20119;-75
2023/03/02 08:41:03;;;;;;;25.23;19.30;;;;;;;4.31;60.64;98489.91;5064518;28;20021;-77
2023/03/02 08:43:28;;;;;;;25.10;19.05;;;;;;;4.29;60.75;98491.97;5044889;28;20037;-78
2023/03/02 08:45:58;;;;;;;22.95;17.90;;;;;;;4.54;59.92;98479.75;5053226;28;20175;-78
2023/03/02 08:48:24;;;;;;;21.83;17.77;;;;;;;4.53;59.97;98478.09;5051217;28;20051;-77
2023/03/02 08:50:54;;;;;;;25.08;17.00;;;;;;;4.73;59.23;98484.34;5034807;28;20472;-77
2023/03/02 08:53:19;;;;;;;27.77;17.02;;;;;;;4.74;59.63;98488.66;5050782;28;20037;-77
2023/03/02 08:55:45;;;;;;;26.00;17.33;;;;;;;4.71;60.62;98479.19;5064373;28;20020;-78
2023/03/02 08:58:10;;;;;;;23.92;17.48;;;;;;;4.86;59.62;98479.03;5029250;28;20032;-78
2023/03/02 09:00:35;;;;;;;23.65;17.33;;;;;;;4.97;58.97;98481.13;5032825;28;20029;-78
2023/03/02 09:03:01;;;;;;;26.17;16.73;;;;;;;4.87;59.71;98478.88;5045256;28;20044;-77
2023/03/02 09:05:27;;;;;;;25.08;16.65;;;;;;;5.00;58.38;98475.38;5057286;28;20028;-77
2023/03/02 09:07:52;;;;;;;20.80;16.48;;;;;;;4.98;57.96;98482.78;5050010;28;20126;-77
2023/03/02 09:10:17;;;;;;;22.85;16.27;;;;;;;5.09;58.17;98484.06;5048311;28;20032;-78
2023/03/02 09:12:43;;;;;;;21.13;16.33;;;;;;;5.19;58.64;98479.94;5065196;28;20036;-77
2023/03/02 09:15:08;;;;;;;22.02;16.13;;;;;;;5.23;58.65;98473.16;5078725;28;20111;-78
2023/03/02 09:17:34;;;;;;;22.85;17.35;;;;;;;5.38;58.58;98484.50;5060116;28;20053;-78
2023/03/02 09:20:00;;;;;;;22.95;15.85;;;;;;;5.42;59.09;98484.88;5068064;28;20025;-77
2023/03/02 09:22:25;;;;;;;24.08;15.55;;;;;;;5.48;57.13;98471.53;5050516;28;20029;-78
2023/03/02 09:24:51;;;;;;;25.40;15.60;;;;;;;5.51;58.08;98478.31;5055112;28;20024;-78
2023/03/02 09:27:16;;;;;;;22.48;16.27;;;;;;;5.69;57.80;98467.03;5033714;28;20630;-77
2023/03/02 09:29:41;;;;;;;22.38;15.93;;;;;;;5.67;57.24;98463.75;5051584;28;20493;-77
2023/03/02 09:32:07;;;;;;;22.75;15.63;;;;;;;5.75;58.55;98459.00;5060199;28;20041;-78
2023/03/02 09:34:32;;;;;;;20.55;14.85;;;;;;;5.84;57.12;98471.16;5046632;28;20032;-77
2023/03/02 09:36:57;;;;;;;26.73;14.65;;;;;;;5.91;56.63;98471.97;5044745;28;20043;-77
2023/03/02 09:39:23;;;;;;;26.70;15.23;;;;;;;5.85;57.07;98464.78;5049196;28;20031;-77
2023/03/02 09:42:17;;;;;;;23.30;15.95;;;;;;;5.99;57.14;98474.44;5044763;28;20036;-78
2023/03/02 09:44:54;;;;;;;22.77;15.63;;;;;;;5.99;56.67;98469.09;5057156;28;20399;-76
2023/03/02 09:47:32;;;;;;;21.10;14.23;;;;;;;6.07;56.15;98473.38;5047117;28;20079;-78
2023/03/02 09:50:14;;;;;;;20.35;14.85;;;;;;;5.96;57.21;98466.00;5061260;28;20111;-77
2023/03/02 09:53:15;;;;;;;18.80;15.38;;;;;;;6.21;58.06;98467.78;5039944;28;20051;-78
2023/03/02 09:55:51;;;;;;;21.40;14.02;;;;;;;6.49;56.79;98461.34;5056638;28;20044;-77
2023/03/02 09:58:18;;;;;;;20.05;14.15;;;;;;;6.35;57.03;98465.88;5049998;28;20560;-78
2023/03/02 10:00:44;;;;;;;19.60;14.23;;;;;;;6.36;57.29;98461.38;5053111;28;20127;-78
2023/03/02 10:03:40;;;;;;;22.52;13.70;;;;;;;6.48;54.88;98457.84;5033178;28;20033;-78
2023/03/02 10:06:05;;;;;;;25.30;14.40;;;;;;;6.60;56.04;98464.16;5070015;28;20040;-78
2023/03/02 10:08:33;;;;;;;22.40;13.60;;;;;;;6.68;55.56;98455.88;5053454;28;20035;-78
2023/03/02 10:11:30;;;;;;;23.58;14.23;;;;;;;6.74;56.68;98460.41;5058901;28;20477;-78
2023/03/02 10:14:20;;;;;;;21.92;13.70;;;;;;;6.87;55.65;98457.66;5054767;28;20067;-78
2023/03/02 10:16:53;;;;;;;20.80;13.85;;;;;;;6.97;55.98;98459.84;5043131;28;20136;-78
2023/03/02 10:19:31;;;;;;;24.05;14.48;;;;;;;6.85;56.49;98451.69;5049750;28;20135;-78
2023/03/02 10:22:00;;;;;;;21.45;13.18;;;;;;;7.18;55.82;98461.38;5041212;28;20090;-77
2023/03/02 10:24:40;;;;;;;21.83;12.73;;;;;;;7.09;55.49;98457.31;5021656;28;20017;-78
2023/03/02 10:27:31;;;;;;;21.40;12.55;;;;;;;7.29;55.41;98452.63;5037375;28;20049;-78
2023/03/02 10:30:19;;;;;;;23.27;13.38;;;;;;;7.31;54.68;98451.38;5040522;28;20037;-78
2023/03/02 10:32:47;;;;;;;24.48;13.70;;;;;;;7.36;55.63;98446.19;5039795;28;20045;-78
2023/03/02 10:35:18;;;;;;;23.17;13.00;;;;;;;7.28;55.08;98445.66;5053551;28;20387;-78
2023/03/02 10:37:43;;;;;;;17.55;13.20;;;;;;;7.45;56.56;98442.22;5050634;28;20033;-78
2023/03/02 10:40:39;;;;;;;20.73;13.05;;;;;;;7.35;55.72;98443.75;5058249;28;20024;-78
2023/03/02 10:43:06;;;;;;;18.48;13.32;;;;;;;7.45;54.50;98444.06;5056683;28;20053;-78
2023/03/02 10:45:31;;;;;;;23.08;13.65;;;;;;;7.64;54.98;98445.75;5064770;28;20032;-79
2023/03/02 10:48:05;;;;;;;20.55;13.15;;;;;;;7.55;54.60;98441.72;5036928;28;20071;-78
2023/03/02 10:50:31;;;;;;;20.42;12.85;;;;;;;7.72;55.25;98445.50;5039623;28;20663;-78
2023/03/02 10:52:57;;;;;;;18.20;12.32;;;;;;;7.67;54.69;98445.34;5037191;28;20017;-78
2023/03/02 10:55:23;;;;;;;19.63;12.07;;;;;;;7.78;54.03;98441.91;5050718;28;20684;-78
2023/03/02 10:58:19;;;;;;;20.00;12.27;;;;;;;8.02;53.40;98433.03;5046580;28;20028;-78
2023/03/02 11:01:04;;;;;;;19.50;11.60;;;;;;;8.12;54.29;98433.31;5067287;28;20047;-79
2023/03/02 11:03:30;;;;;;;21.15;12.65;;;;;;;8.02;53.88;98427.66;5067395;28;20067;-78
2023/03/02 11:05:59;;;;;;;24.25;12.10;;;;;;;7.94;54.53;98425.25;5038368;28;20027;-78
2023/03/02 11:08:27;;;;;;;20.65;11.48;;;;;;;8.21;53.11;98423.94;5058150;28;20600;-78
2023/03/02 11:11:02;;;;;;;23.63;11.27;;;;;;;8.28;53.20;98422.03;5027310;28;20032;-78
2023/03/02 11:13:45;;;;;;;23.55;11.43;;;;;;;8.28;53.45;98411.28;5052319;28;20033;-77
2023/03/02 11:16:17;;;;;;;24.45;11.00;;;;;;;8.35;54.03;98420.09;5037239;28;20665;-78
2023/03/02 11:18:47;;;;;;;21.73;12.00;;;;;;;8.60;54.37;98421.84;5049477;28;20041;-78
2023/03/02 11:21:48;;;;;;;15.18;10.30;;;;;;;8.48;53.52;98415.59;5055173;28;20035;-78
2023/03/02 11:24:17;;;;;;;16.15;9.95;;;;;;;8.67;53.62;98419.91;5080885;28;20127;-79
2023/03/02 11:26:46;;;;;;;19.17;9.80;;;;;;;8.65;53.80;98416.63;5057553;28;20024;-78
2023/03/02 11:29:30;;;;;;;21.65;8.68;;;;;;;8.73;53.50;98408.25;5070891;28;20097;-78